createdAt,value
2023-04-27T00:00:01.133Z,4.57
2023-04-27T00:03:06.557Z,3.65
2023-04-27T00:06:10.041Z,3.90
2023-04-27T00:09:12.674Z,4.33
2023-04-27T00:12:15.098Z,3.92
2023-04-27T00:15:17.118Z,4.25
2023-04-27T00:18:19.435Z,3.87
2023-04-27T00:21:21.686Z,3.85
2023-04-27T00:24:23.844Z,3.47
2023-04-27T00:27:25.932Z,3.45
2023-04-27T00:30:28.042Z,3.90
2023-04-27T00:33:30.093Z,3.53
2023-04-27T00:36:34.456Z,2.47
2023-04-27T00:39:36.453Z,2.90
2023-04-27T00:42:38.945Z,3.03
2023-04-27T00:45:43.412Z,2.97
2023-04-27T00:48:46.522Z,2.62
2023-04-27T00:51:48.917Z,2.85
2023-04-27T00:54:52.329Z,2.40
2023-04-27T00:57:54.339Z,2.25
2023-04-27T01:00:56.640Z,2.53
2023-04-27T01:03:59.081Z,2.90
2023-04-27T01:07:03.566Z,3.33
2023-04-27T01:10:07.188Z,2.73
2023-04-27T01:13:09.828Z,2.20
2023-04-27T01:16:11.828Z,2.25
2023-04-27T01:19:14.094Z,2.80
2023-04-27T01:22:16.427Z,2.37
2023-04-27T01:25:20.186Z,3.10
2023-04-27T01:28:22.164Z,2.83
2023-04-27T01:31:24.266Z,2.50
2023-04-27T01:34:26.422Z,2.40
2023-04-27T01:37:28.534Z,3.00
2023-04-27T01:40:30.690Z,2.70
2023-04-27T01:43:33.012Z,2.30
2023-04-27T01:46:34.997Z,2.78
2023-04-27T01:49:37.266Z,3.10
2023-04-27T01:52:39.474Z,3.10
2023-04-27T01:55:42.097Z,3.00
2023-04-27T01:58:44.306Z,2.97
2023-04-27T02:01:46.294Z,3.03
2023-04-27T02:04:48.551Z,2.60
2023-04-27T02:07:51.156Z,3.10
2023-04-27T02:10:53.161Z,2.70
2023-04-27T02:13:55.181Z,2.70
2023-04-27T02:16:57.099Z,3.05
2023-04-27T02:19:59.070Z,2.80
2023-04-27T02:23:02.317Z,3.42
2023-04-27T02:26:04.305Z,3.20
2023-04-27T02:29:06.391Z,3.25
2023-04-27T02:32:08.871Z,2.75
2023-04-27T02:35:11.254Z,3.03
2023-04-27T02:38:13.728Z,3.05
2023-04-27T02:41:15.761Z,2.97
2023-04-27T02:44:17.641Z,2.37
2023-04-27T02:47:19.620Z,2.55
2023-04-27T02:50:21.827Z,2.60
2023-04-27T02:53:23.845Z,3.62
2023-04-27T02:56:25.833Z,3.30
2023-04-27T02:59:28.270Z,2.67
2023-04-27T03:02:30.597Z,3.40
2023-04-27T03:05:32.897Z,3.00
2023-04-27T03:08:50.754Z,2.92
2023-04-27T03:11:52.945Z,2.57
2023-04-27T03:14:54.905Z,2.90
2023-04-27T03:17:56.821Z,2.60
2023-04-27T03:21:06.685Z,2.55
2023-04-27T03:24:08.672Z,3.05
2023-04-27T03:27:10.830Z,3.23
2023-04-27T03:30:13.252Z,2.40
2023-04-27T03:33:15.925Z,3.30
2023-04-27T03:36:17.917Z,3.08
2023-04-27T03:39:20.022Z,3.00
2023-04-27T03:42:22.366Z,2.73
2023-04-27T03:45:24.812Z,3.12
2023-04-27T03:48:26.914Z,3.00
2023-04-27T03:51:32.260Z,3.42
2023-04-27T03:54:34.352Z,3.03
2023-04-27T03:57:36.342Z,2.87
2023-04-27T04:00:39.172Z,2.70
2023-04-27T04:03:41.333Z,2.80
2023-04-27T04:06:43.423Z,2.37
2023-04-27T04:09:45.443Z,2.40
2023-04-27T04:12:47.452Z,2.70
2023-04-27T04:15:49.431Z,2.90
2023-04-27T04:18:52.103Z,2.60
2023-04-27T04:21:54.862Z,3.65
2023-04-27T04:24:57.714Z,2.85
2023-04-27T04:27:59.691Z,2.50
2023-04-27T04:31:02.069Z,2.70
2023-04-27T04:34:04.077Z,2.92
2023-04-27T04:37:06.301Z,2.75
2023-04-27T04:40:09.297Z,3.30
2023-04-27T04:43:12.329Z,3.00
2023-04-27T04:46:14.278Z,2.25
2023-04-27T04:49:16.517Z,3.45
2023-04-27T04:52:18.840Z,3.00
2023-04-27T04:55:20.914Z,2.95
2023-04-27T04:58:22.842Z,2.90
2023-04-27T05:01:24.950Z,2.55
2023-04-27T05:04:27.642Z,2.92
2023-04-27T05:07:29.647Z,3.20
2023-04-27T05:10:31.850Z,3.30
2023-04-27T05:13:34.053Z,2.80
2023-04-27T05:16:36.164Z,3.10
2023-04-27T05:19:38.262Z,3.35
2023-04-27T05:22:40.773Z,3.03
2023-04-27T05:25:42.983Z,3.67
2023-04-27T05:28:45.332Z,3.10
2023-04-27T05:31:47.353Z,3.85
2023-04-27T05:34:49.749Z,3.37
2023-04-27T05:37:51.810Z,3.92
2023-04-27T05:40:58.737Z,3.90
2023-04-27T05:44:00.861Z,6.17
2023-04-27T05:47:02.800Z,5.18
2023-04-27T05:50:05.397Z,3.92
2023-04-27T05:53:07.837Z,3.40
2023-04-27T05:56:11.813Z,5.25
2023-04-27T05:59:13.979Z,5.03
2023-04-27T06:02:18.327Z,5.37
2023-04-27T06:05:20.799Z,5.75
2023-04-27T06:11:42.682Z,7.07
2023-04-27T06:14:44.724Z,5.07
2023-04-27T06:17:46.888Z,5.00
2023-04-27T06:20:48.900Z,6.90
2023-04-27T06:23:50.892Z,5.40
2023-04-27T06:26:52.869Z,6.20
2023-04-27T06:29:54.850Z,5.50
2023-04-27T06:32:56.940Z,4.40
2023-04-27T06:35:58.951Z,5.00
2023-04-27T06:39:01.027Z,3.83
2023-04-27T06:42:06.571Z,3.70
2023-04-27T06:45:08.722Z,3.70
2023-04-27T06:48:10.862Z,3.08
2023-04-27T06:51:13.688Z,2.20
2023-04-27T06:54:15.801Z,2.10
2023-04-27T06:57:17.755Z,1.95
2023-04-27T07:00:20.164Z,2.07
2023-04-27T07:03:22.542Z,2.42
2023-04-27T07:06:26.074Z,2.37
2023-04-27T07:09:29.224Z,2.20
2023-04-27T07:12:31.468Z,1.75
2023-04-27T07:15:34.168Z,2.10
2023-04-27T07:18:36.352Z,2.20
2023-04-27T07:21:38.455Z,2.55
2023-04-27T07:24:40.395Z,2.20
2023-04-27T07:27:42.982Z,2.50
2023-04-27T07:30:44.955Z,2.00
2023-04-27T07:33:46.938Z,2.05
2023-04-27T07:36:48.880Z,1.92
2023-04-27T07:39:54.521Z,2.00
2023-04-27T07:42:56.652Z,1.73
2023-04-27T07:45:58.749Z,1.80
2023-04-27T07:49:01.110Z,2.22
2023-04-27T07:52:04.821Z,2.20
2023-04-27T07:55:07.406Z,2.17
2023-04-27T07:58:09.414Z,2.25
2023-04-27T08:01:11.724Z,2.30
2023-04-27T08:04:18.284Z,2.15
2023-04-27T08:07:20.571Z,2.20
2023-04-27T08:10:23.464Z,1.98
2023-04-27T08:13:25.631Z,1.70
2023-04-27T08:16:28.096Z,1.83
2023-04-27T08:19:30.131Z,1.80
2023-04-27T08:22:32.710Z,2.25
2023-04-27T08:25:37.116Z,1.90
2023-04-27T08:28:39.120Z,2.10
2023-04-27T08:31:41.207Z,1.70
2023-04-27T08:34:45.017Z,1.80
2023-04-27T08:37:46.985Z,1.67
2023-04-27T08:40:49.259Z,1.73
2023-04-27T08:43:52.127Z,1.67
2023-04-27T08:46:54.133Z,1.60
2023-04-27T08:49:56.238Z,2.20
2023-04-27T08:52:58.191Z,1.80
2023-04-27T08:56:00.327Z,1.90
2023-04-27T08:59:04.656Z,2.00
2023-04-27T09:02:18.092Z,1.40
2023-04-27T09:05:22.526Z,1.52
2023-04-27T09:08:24.634Z,1.98
2023-04-27T09:11:34.069Z,1.83
2023-04-27T09:14:36.887Z,1.45
2023-04-27T09:17:39.047Z,1.90
2023-04-27T09:20:54.027Z,1.80
2023-04-27T09:23:56.911Z,1.90
2023-04-27T09:27:00.688Z,1.92
2023-04-27T09:30:13.321Z,2.35
2023-04-27T09:33:15.498Z,2.40
2023-04-27T09:36:17.546Z,2.28
2023-04-27T09:39:20.271Z,2.30
2023-04-27T09:42:22.530Z,2.25
2023-04-27T09:45:25.959Z,2.53
2023-04-27T09:48:28.250Z,2.13
2023-04-27T09:51:30.291Z,2.30
2023-04-27T09:54:34.522Z,2.20
2023-04-27T09:57:49.062Z,2.40
2023-04-27T10:01:03.612Z,2.45
2023-04-27T10:04:18.071Z,2.40
2023-04-27T10:07:20.764Z,2.42
2023-04-27T10:10:23.037Z,2.60
2023-04-27T10:13:27.153Z,2.40
2023-04-27T10:16:43.637Z,2.95
2023-04-27T10:19:58.859Z,2.50
2023-04-27T10:23:01.130Z,2.50
2023-04-27T10:26:07.740Z,2.40
2023-04-27T10:29:10.408Z,2.53
2023-04-27T10:32:18.945Z,2.50
2023-04-27T10:35:22.942Z,2.77
2023-04-27T10:38:30.393Z,2.87
2023-04-27T10:41:36.417Z,2.75
2023-04-27T10:44:39.143Z,2.67
2023-04-27T10:47:45.697Z,2.75
2023-04-27T10:50:47.839Z,2.80
2023-04-27T10:53:52.918Z,2.50
2023-04-27T10:57:02.217Z,2.72
2023-04-27T11:00:05.809Z,2.50
2023-04-27T11:03:22.951Z,2.50
2023-04-27T11:06:25.505Z,2.60
2023-04-27T11:09:27.784Z,2.10
2023-04-27T11:12:32.309Z,2.72
2023-04-27T11:15:46.991Z,2.40
2023-04-27T11:18:49.030Z,2.20
2023-04-27T11:21:51.619Z,2.50
2023-04-27T11:24:53.778Z,2.60
2023-04-27T11:27:56.038Z,2.42
2023-04-27T11:31:01.017Z,2.50
2023-04-27T11:34:04.058Z,2.37
2023-04-27T11:37:17.805Z,2.20
2023-04-27T11:40:20.741Z,2.20
2023-04-27T11:43:26.198Z,2.62
2023-04-27T11:46:28.199Z,2.20
2023-04-27T11:49:30.606Z,2.53
2023-04-27T11:52:36.488Z,2.30
2023-04-27T11:55:41.208Z,2.60
2023-04-27T11:58:46.282Z,2.50
2023-04-27T12:01:48.957Z,2.22
2023-04-27T12:04:51.991Z,2.50
2023-04-27T12:07:54.086Z,2.70
2023-04-27T12:10:56.720Z,2.53
2023-04-27T12:14:03.049Z,2.50
2023-04-27T12:17:05.109Z,2.40
2023-04-27T12:20:07.984Z,2.55
2023-04-27T12:23:09.996Z,2.20
2023-04-27T12:26:15.019Z,2.20
2023-04-27T12:29:17.982Z,2.70
2023-04-27T12:32:20.349Z,2.60
2023-04-27T12:35:22.493Z,2.30
2023-04-27T12:38:24.486Z,2.37
2023-04-27T12:41:26.749Z,2.20
2023-04-27T12:44:28.716Z,2.30
2023-04-27T12:50:38.109Z,2.60
2023-04-27T12:53:40.067Z,2.30
2023-04-27T12:56:42.389Z,2.42
2023-04-27T12:59:44.316Z,2.35
2023-04-27T13:02:46.522Z,2.50
2023-04-27T13:05:48.719Z,2.22
2023-04-27T13:08:51.297Z,2.20
2023-04-27T13:11:54.294Z,2.47
2023-04-27T13:14:57.142Z,2.70
2023-04-27T13:17:59.368Z,2.40
2023-04-27T13:21:02.764Z,2.70
2023-04-27T13:24:05.424Z,2.40
2023-04-27T13:27:07.717Z,2.28
2023-04-27T13:30:10.258Z,2.37
2023-04-27T13:33:22.483Z,2.40
2023-04-27T13:36:24.977Z,2.90
2023-04-27T13:39:26.882Z,2.80
2023-04-27T13:42:29.752Z,2.47
2023-04-27T13:45:32.437Z,2.58
2023-04-27T13:48:34.727Z,2.70
2023-04-27T13:51:36.893Z,2.03
2023-04-27T13:54:38.820Z,1.97
2023-04-27T13:57:40.746Z,1.98
2023-04-27T14:00:42.859Z,2.90
2023-04-27T14:03:45.138Z,2.22
2023-04-27T14:06:47.204Z,2.12
2023-04-27T14:09:49.619Z,1.87
2023-04-27T14:12:51.637Z,1.80
2023-04-27T14:15:53.565Z,1.90
2023-04-27T14:18:56.030Z,2.37
2023-04-27T14:21:59.172Z,1.90
2023-04-27T14:25:01.108Z,1.93
2023-04-27T14:28:05.246Z,2.25
2023-04-27T14:31:07.644Z,2.20
2023-04-27T14:34:09.938Z,2.08
2023-04-27T14:37:11.851Z,1.90
2023-04-27T14:40:14.190Z,2.20
2023-04-27T14:43:17.898Z,2.20
2023-04-27T14:46:21.383Z,2.15
2023-04-27T14:49:24.221Z,1.90
2023-04-27T14:52:26.276Z,2.35
2023-04-27T14:55:29.537Z,2.10
2023-04-27T14:58:34.543Z,2.30
2023-04-27T15:01:37.184Z,3.53
2023-04-27T15:04:40.142Z,2.20
2023-04-27T15:07:42.130Z,2.40
2023-04-27T15:10:45.016Z,2.23
2023-04-27T15:13:47.011Z,1.80
2023-04-27T15:16:49.654Z,2.20
2023-04-27T15:19:52.487Z,2.12
2023-04-27T15:22:56.321Z,1.90
2023-04-27T15:25:59.500Z,1.97
2023-04-27T15:29:02.141Z,2.00
2023-04-27T15:32:05.433Z,1.90
2023-04-27T15:35:08.459Z,1.90
2023-04-27T15:38:13.212Z,1.85
2023-04-27T15:41:16.297Z,2.10
2023-04-27T15:44:18.892Z,2.03
2023-04-27T15:47:21.394Z,1.80
2023-04-27T15:50:23.839Z,1.90
2023-04-27T15:53:25.895Z,2.12
2023-04-27T15:56:30.028Z,1.73
2023-04-27T15:59:32.746Z,2.00
2023-04-27T16:02:34.899Z,1.90
2023-04-27T16:05:37.029Z,2.00
2023-04-27T16:08:39.072Z,2.20
2023-04-27T16:11:42.774Z,2.00
2023-04-27T16:14:44.682Z,2.20
2023-04-27T16:17:46.830Z,2.12
2023-04-27T16:20:48.819Z,2.17
2023-04-27T16:23:51.765Z,2.25
2023-04-27T16:26:53.839Z,2.07
2023-04-27T16:29:56.479Z,1.90
2023-04-27T16:32:58.536Z,2.28
2023-04-27T16:36:00.799Z,2.30
2023-04-27T16:39:05.133Z,3.05
2023-04-27T16:42:07.239Z,2.33
2023-04-27T16:45:10.948Z,2.42
2023-04-27T16:48:13.222Z,2.90
2023-04-27T16:51:15.436Z,2.03
2023-04-27T16:54:17.574Z,2.03
2023-04-27T16:57:20.705Z,1.90
2023-04-27T17:00:22.942Z,1.45
2023-04-27T17:03:26.330Z,2.25
2023-04-27T17:06:30.407Z,2.03
2023-04-27T17:09:32.319Z,2.00
2023-04-27T17:12:35.979Z,2.00
2023-04-27T17:15:38.308Z,2.10
2023-04-27T17:18:41.183Z,2.30
2023-04-27T17:21:43.502Z,2.25
2023-04-27T17:24:46.047Z,2.15
2023-04-27T17:27:48.258Z,2.10
2023-04-27T17:30:50.502Z,3.22
2023-04-27T17:33:52.572Z,3.62
2023-04-27T17:36:54.538Z,4.35
2023-04-27T17:39:56.581Z,5.22
2023-04-27T17:42:58.886Z,5.03
2023-04-27T17:46:01.022Z,4.18
2023-04-27T17:49:03.045Z,3.37
2023-04-27T17:52:05.535Z,2.70
2023-04-27T17:55:07.894Z,2.55
2023-04-27T17:58:11.310Z,2.20
2023-04-27T18:01:13.777Z,2.12
2023-04-27T18:04:16.155Z,2.40
2023-04-27T18:07:19.358Z,2.22
2023-04-27T18:10:21.916Z,2.55
2023-04-27T18:13:24.113Z,2.10
2023-04-27T18:16:26.568Z,2.40
2023-04-27T18:19:28.691Z,2.15
2023-04-27T18:22:31.253Z,2.20
2023-04-27T18:25:33.652Z,2.40
2023-04-27T18:28:37.968Z,1.97
2023-04-27T18:31:39.965Z,2.40
2023-04-27T18:34:42.987Z,1.80
2023-04-27T18:37:48.660Z,2.22
2023-04-27T18:40:53.764Z,2.12
2023-04-27T18:44:03.647Z,2.17
2023-04-27T18:47:07.748Z,2.08
2023-04-27T18:50:11.264Z,2.00
2023-04-27T18:53:13.654Z,2.17
2023-04-27T18:56:16.262Z,1.98
2023-04-27T18:59:18.970Z,2.07
2023-04-27T19:02:21.394Z,2.12
2023-04-27T19:05:23.597Z,2.37
2023-04-27T19:08:25.838Z,2.97
2023-04-27T19:11:29.259Z,2.58
2023-04-27T19:14:32.031Z,3.40
2023-04-27T19:17:35.640Z,3.72
2023-04-27T19:20:39.170Z,3.55
2023-04-27T19:23:43.359Z,2.95
2023-04-27T19:26:46.872Z,3.20
2023-04-27T19:29:54.081Z,3.10
2023-04-27T19:32:56.291Z,3.70
2023-04-27T19:35:58.716Z,3.80
2023-04-27T19:39:01.221Z,3.90
2023-04-27T19:42:03.941Z,4.05
2023-04-27T19:45:07.430Z,4.50
2023-04-27T19:48:09.529Z,4.25
2023-04-27T19:51:15.050Z,4.18
2023-04-27T19:54:18.197Z,4.10
2023-04-27T19:57:22.131Z,4.35
2023-04-27T20:00:24.380Z,3.90
2023-04-27T20:03:26.543Z,3.92
2023-04-27T20:06:29.269Z,3.72
2023-04-27T20:09:31.884Z,4.18
2023-04-27T20:12:44.059Z,3.42
2023-04-27T20:15:54.195Z,3.73
2023-04-27T20:18:56.424Z,2.90
2023-04-27T20:21:59.254Z,3.28
2023-04-27T20:25:02.728Z,2.67
2023-04-27T20:28:04.855Z,3.08
2023-04-27T20:31:07.395Z,3.03
2023-04-27T20:34:09.830Z,3.20
2023-04-27T20:37:11.812Z,3.20
2023-04-27T20:40:17.809Z,3.28
2023-04-27T20:43:21.309Z,3.90
2023-04-27T20:46:23.348Z,3.00
2023-04-27T20:49:34.508Z,2.47
2023-04-27T20:52:37.401Z,3.20
2023-04-27T20:55:39.491Z,3.10
2023-04-27T20:58:41.528Z,3.53
2023-04-27T21:01:43.528Z,3.10
2023-04-27T21:04:46.077Z,2.97
2023-04-27T21:07:48.130Z,2.87
2023-04-27T21:10:50.681Z,3.05
2023-04-27T21:13:53.055Z,3.05
2023-04-27T21:16:55.103Z,2.87
2023-04-27T21:19:58.201Z,2.72
2023-04-27T21:23:00.766Z,2.92
2023-04-27T21:26:02.688Z,2.97
2023-04-27T21:29:06.053Z,3.15
2023-04-27T21:32:08.269Z,2.50
2023-04-27T21:35:10.862Z,3.08
2023-04-27T21:38:12.852Z,3.03
2023-04-27T21:41:16.724Z,2.72
2023-04-27T21:44:19.272Z,3.60
2023-04-27T21:47:21.408Z,3.03
2023-04-27T21:50:23.809Z,2.62
2023-04-27T21:53:26.384Z,3.10
2023-04-27T21:56:28.805Z,2.80
2023-04-27T21:59:30.953Z,2.70
2023-04-27T22:02:48.552Z,2.53
2023-04-27T22:05:50.963Z,2.60
2023-04-27T22:08:53.284Z,2.87
2023-04-27T22:11:55.240Z,2.70
2023-04-27T22:14:57.356Z,2.47
2023-04-27T22:17:59.547Z,2.60
2023-04-27T22:21:01.604Z,2.50
2023-04-27T22:24:03.767Z,2.58
2023-04-27T22:27:05.812Z,2.87
2023-04-27T22:30:09.054Z,2.53
2023-04-27T22:33:11.572Z,2.20
2023-04-27T22:36:13.827Z,2.85
2023-04-27T22:39:16.023Z,3.00
2023-04-27T22:42:18.008Z,2.47
2023-04-27T22:45:20.069Z,2.70
2023-04-27T22:48:22.217Z,2.80
2023-04-27T22:51:27.323Z,3.00
2023-04-27T22:54:29.596Z,3.53
2023-04-27T22:57:31.631Z,2.80
2023-04-27T23:00:33.799Z,2.97
2023-04-27T23:03:36.093Z,3.10
2023-04-27T23:06:38.262Z,3.12
2023-04-27T23:09:40.194Z,2.90
2023-04-27T23:12:42.274Z,2.92
2023-04-27T23:15:44.228Z,2.83
2023-04-27T23:18:46.968Z,2.40
2023-04-27T23:21:49.013Z,2.42
2023-04-27T23:24:51.896Z,2.85
2023-04-27T23:27:53.917Z,2.80
2023-04-27T23:30:55.988Z,2.60
2023-04-27T23:33:58.336Z,2.70
2023-04-27T23:37:01.069Z,2.67
2023-04-27T23:40:03.157Z,2.90
2023-04-27T23:43:05.141Z,2.30
2023-04-27T23:46:07.253Z,2.40
2023-04-27T23:49:09.449Z,2.43
2023-04-27T23:52:12.193Z,2.58
2023-04-27T23:55:14.754Z,2.53
2023-04-27T23:58:17.046Z,2.70
